Time;durP1;ratioP1;P1;durP2;ratioP2;P2;SDS_P1;SDS_P2;PMS_P1;PMS_P2;Temp;Humidity;BMP_temperature;BMP_pressure;BME280_temperature;BME280_humidity;BME280_pressure;Samples;Min_cycle;Max_cycle;Signal;HPM_P1;HPM_P2
2022/01/14 00:00:50;;;;;;;2.90;1.40;;;;;;;-148.81;100.00;67990.72;2097022;28;20060;-60
2022/01/14 00:01:55;;;;;;;3.67;1.60;;;;;;;-148.81;100.00;67990.72;2096117;28;20542;-59
2022/01/14 00:02:58;;;;;;;2.63;1.50;;;;;;;-148.81;100.00;67990.72;2095706;28;20511;-60
2022/01/14 00:04:06;;;;;;;4.13;1.73;;;;;;;-148.81;100.00;67990.72;2095581;28;20044;-60
2022/01/14 00:05:13;;;;;;;4.00;1.73;;;;;;;-148.81;100.00;67990.72;2095742;28;20052;-60
2022/01/14 00:06:17;;;;;;;2.92;1.40;;;;;;;-148.81;100.00;67990.72;2095813;28;20048;-60
2022/01/14 00:07:22;;;;;;;3.75;1.70;;;;;;;-148.81;100.00;67990.72;2096939;28;20055;-60
2022/01/14 00:08:26;;;;;;;2.25;1.38;;;;;;;-148.81;100.00;67990.72;2096066;28;20048;-60
2022/01/14 00:09:32;;;;;;;2.88;1.50;;;;;;;-148.81;100.00;67990.72;2095316;28;20052;-60
2022/01/14 00:10:36;;;;;;;3.13;1.35;;;;;;;-148.81;100.00;67990.72;2096261;28;20473;-59
2022/01/14 00:11:45;;;;;;;3.10;1.60;;;;;;;-148.81;100.00;67990.72;2096780;28;20059;-58
2022/01/14 00:12:54;;;;;;;5.55;1.50;;;;;;;-148.81;100.00;67990.72;2095931;28;20056;-58
2022/01/14 00:14:09;;;;;;;6.13;1.53;;;;;;;-148.81;100.00;67990.72;2096483;28;20036;-58
2022/01/14 00:15:24;;;;;;;7.68;1.30;;;;;;;-148.81;100.00;67990.72;2096358;28;20316;-58
2022/01/14 00:16:29;;;;;;;4.95;1.70;;;;;;;-148.81;100.00;67990.72;2096068;28;20044;-60
2022/01/14 00:17:35;;;;;;;4.43;1.40;;;;;;;-148.81;100.00;67990.72;2096882;28;20052;-59
2022/01/14 00:18:38;;;;;;;2.45;1.30;;;;;;;-148.81;100.00;67990.72;2096791;28;20049;-58
2022/01/14 00:19:44;;;;;;;2.80;1.38;;;;;;;-148.81;100.00;67990.72;2096319;28;20063;-58
2022/01/14 00:20:50;;;;;;;3.80;1.58;;;;;;;-148.81;100.00;67990.72;2096132;28;20071;-58
2022/01/14 00:21:55;;;;;;;3.05;1.30;;;;;;;-148.81;100.00;67990.72;2096441;28;20052;-59
2022/01/14 00:22:59;;;;;;;2.67;1.40;;;;;;;-148.81;100.00;67990.72;2096075;28;20052;-59
2022/01/14 00:24:10;;;;;;;2.45;1.40;;;;;;;-148.81;100.00;67990.72;2096340;28;20512;-58
2022/01/14 00:32:14;;;;;;;3.70;1.58;;;;;;;-148.81;100.00;67990.72;2095515;28;20052;-59
2022/01/14 00:33:19;;;;;;;4.07;1.20;;;;;;;-148.81;100.00;67990.72;2096359;28;20059;-59
2022/01/14 00:34:22;;;;;;;3.80;1.40;;;;;;;-148.81;100.00;67990.72;2096089;28;20055;-59
2022/01/14 00:35:28;;;;;;;3.38;1.23;;;;;;;-148.81;100.00;67990.72;2095693;28;20045;-59
2022/01/14 00:36:32;;;;;;;7.07;1.50;;;;;;;-148.81;100.00;67990.72;2095809;28;20052;-59
2022/01/14 00:37:41;;;;;;;10.98;1.30;;;;;;;-148.81;100.00;67990.72;2096538;28;20052;-59
2022/01/14 00:38:47;;;;;;;2.55;1.40;;;;;;;-148.81;100.00;67990.72;2096388;28;20044;-59
2022/01/14 00:39:52;;;;;;;3.25;1.40;;;;;;;-148.81;100.00;67990.72;2096106;28;20053;-59
2022/01/14 00:40:55;;;;;;;2.10;1.25;;;;;;;-148.81;100.00;67990.72;2096241;28;20690;-59
2022/01/14 00:42:00;;;;;;;2.13;1.40;;;;;;;-148.81;100.00;67990.72;2096345;28;20056;-59
2022/01/14 00:43:10;;;;;;;2.75;1.40;;;;;;;-148.81;100.00;67990.72;2096158;28;20036;-59
2022/01/14 00:44:17;;;;;;;3.90;1.38;;;;;;;-148.81;100.00;67990.72;2096448;28;20404;-59
2022/01/14 00:45:21;;;;;;;3.40;1.30;;;;;;;-148.81;100.00;67990.72;2096417;28;20127;-59
2022/01/14 00:46:26;;;;;;;3.78;1.40;;;;;;;-148.81;100.00;67990.72;2096497;28;20571;-59
2022/01/14 00:47:34;;;;;;;2.88;1.20;;;;;;;-148.81;100.00;67990.72;2096111;28;20049;-59
2022/01/14 00:48:38;;;;;;;6.30;1.33;;;;;;;-148.81;100.00;67990.72;2095919;28;20063;-59
2022/01/14 00:49:43;;;;;;;2.75;1.35;;;;;;;-148.81;100.00;67990.72;2096064;28;20045;-60
2022/01/14 00:50:46;;;;;;;5.75;1.58;;;;;;;-148.81;100.00;67990.72;2095361;28;20052;-59
2022/01/14 00:51:50;;;;;;;2.35;1.30;;;;;;;-148.81;100.00;67990.72;2095705;28;20060;-59
2022/01/14 00:52:54;;;;;;;2.40;1.20;;;;;;;-148.81;100.00;67990.72;2096409;28;20052;-60
2022/01/14 00:53:59;;;;;;;3.28;1.20;;;;;;;-148.81;100.00;67990.72;2095736;28;20048;-60
2022/01/14 00:55:04;;;;;;;1.80;1.25;;;;;;;-148.81;100.00;67990.72;2096026;28;20059;-60
2022/01/14 00:56:21;;;;;;;1.25;1.00;;;;;;;-148.81;100.00;67990.72;2095307;28;20048;-61
2022/01/14 00:59:13;;;;;;;3.75;1.10;;;;;;;-148.81;100.00;67990.72;2095196;28;20053;-60
2022/01/14 01:00:17;;;;;;;2.55;1.27;;;;;;;-148.81;100.00;67990.72;2095353;28;20060;-60
2022/01/14 01:01:20;;;;;;;2.65;1.05;;;;;;;-148.81;100.00;67990.72;2095160;28;20060;-59
2022/01/14 01:02:28;;;;;;;2.95;1.20;;;;;;;-148.81;100.00;67990.72;2096184;28;20759;-59
2022/01/14 01:03:33;;;;;;;1.50;0.98;;;;;;;-148.81;100.00;67990.72;2095960;28;20057;-59
2022/01/14 01:04:40;;;;;;;2.85;1.20;;;;;;;-148.81;100.00;67990.72;2095961;28;20076;-58
2022/01/14 01:05:44;;;;;;;2.25;1.10;;;;;;;-148.81;100.00;67990.72;2096553;28;20053;-58
2022/01/14 01:06:51;;;;;;;2.40;1.13;;;;;;;-148.81;100.00;67990.72;2096222;28;20048;-59
2022/01/14 01:08:03;;;;;;;2.28;1.30;;;;;;;-148.81;100.00;67990.72;2096285;28;20568;-58
2022/01/14 01:09:12;;;;;;;2.17;1.15;;;;;;;-148.81;100.00;67990.72;2094969;28;20048;-59
2022/01/14 01:10:17;;;;;;;1.70;1.10;;;;;;;-148.81;100.00;67990.72;2095801;28;20459;-59
2022/01/14 01:11:30;;;;;;;2.35;1.30;;;;;;;-148.81;100.00;67990.72;2096400;28;20544;-58
2022/01/14 01:12:40;;;;;;;1.42;1.00;;;;;;;-148.81;100.00;67990.72;2096285;28;20053;-58
2022/01/14 01:13:50;;;;;;;2.40;1.20;;;;;;;-148.81;100.00;67990.72;2096172;28;20534;-58
2022/01/14 01:15:05;;;;;;;2.70;1.27;;;;;;;-148.81;100.00;67990.72;2095893;28;20634;-58
2022/01/14 01:16:10;;;;;;;4.57;1.33;;;;;;;-148.81;100.00;67990.72;2096145;28;20523;-58
2022/01/14 01:17:14;;;;;;;1.85;1.00;;;;;;;-148.81;100.00;67990.72;2095764;28;20052;-58
2022/01/14 01:18:19;;;;;;;2.30;1.17;;;;;;;-148.81;100.00;67990.72;2095811;28;20048;-58
2022/01/14 01:19:23;;;;;;;3.63;1.20;;;;;;;-148.81;100.00;67990.72;2095719;28;20049;-58
2022/01/14 01:20:28;;;;;;;1.90;1.10;;;;;;;-148.81;100.00;67990.72;2096450;28;20061;-58
2022/01/14 01:21:35;;;;;;;1.45;0.90;;;;;;;-148.81;100.00;67990.72;2102454;28;20157;-58
2022/01/14 01:22:42;;;;;;;2.60;0.90;;;;;;;-148.81;100.00;67990.72;2104550;28;20503;-59
2022/01/14 01:23:54;;;;;;;3.55;1.00;;;;;;;-148.81;100.00;67990.72;2103448;28;20055;-58
2022/01/14 01:24:59;;;;;;;1.55;1.10;;;;;;;-148.81;100.00;67990.72;2103874;28;20506;-58
2022/01/14 01:26:10;;;;;;;2.47;1.20;;;;;;;-148.81;100.00;67990.72;2104284;28;20052;-59
2022/01/14 01:27:17;;;;;;;2.58;1.02;;;;;;;-148.81;100.00;67990.72;2104396;28;20060;-59
2022/01/14 01:28:20;;;;;;;1.80;1.05;;;;;;;-148.81;100.00;67990.72;2104010;28;20503;-59
2022/01/14 01:31:03;;;;;;;3.35;1.15;;;;;;;-148.81;100.00;67990.72;2103656;28;20055;-59
2022/01/14 01:32:10;;;;;;;2.28;1.10;;;;;;;-148.81;100.00;67990.72;2103879;28;20484;-59
2022/01/14 01:33:16;;;;;;;2.40;1.02;;;;;;;-148.81;100.00;67990.72;2104472;28;20051;-59
2022/01/14 01:34:22;;;;;;;1.92;1.10;;;;;;;-148.81;100.00;67990.72;2104277;28;20052;-59
2022/01/14 01:35:27;;;;;;;2.15;1.20;;;;;;;-148.81;100.00;67990.72;2104464;28;20052;-59
2022/01/14 01:36:31;;;;;;;2.13;1.00;;;;;;;-148.81;100.00;67990.72;2103962;28;20499;-59
2022/01/14 01:37:36;;;;;;;1.88;0.93;;;;;;;-148.81;100.00;67990.72;2103735;28;20044;-59
2022/01/14 01:38:40;;;;;;;2.20;0.98;;;;;;;-148.81;100.00;67990.72;2103623;28;20040;-59
2022/01/14 01:39:45;;;;;;;3.25;1.20;;;;;;;-148.81;100.00;67990.72;2104499;28;20059;-58
2022/01/14 01:40:50;;;;;;;2.00;1.08;;;;;;;-148.81;100.00;67990.72;2104326;28;20059;-59
2022/01/14 01:41:56;;;;;;;1.73;1.00;;;;;;;-148.81;100.00;67990.72;2103353;28;20044;-59
2022/01/14 01:43:03;;;;;;;3.78;1.20;;;;;;;-148.81;100.00;67990.72;2095513;28;20052;-60
2022/01/14 01:44:09;;;;;;;2.22;0.90;;;;;;;-148.81;100.00;67990.72;2103491;28;20048;-59
2022/01/14 01:45:21;;;;;;;1.83;1.05;;;;;;;-148.81;100.00;67990.72;2103857;28;20048;-59
2022/01/14 01:46:27;;;;;;;2.10;1.00;;;;;;;-148.81;100.00;67990.72;2103206;28;20229;-59
2022/01/14 01:47:33;;;;;;;1.92;1.08;;;;;;;-148.81;100.00;67990.72;2102992;28;20055;-59
2022/01/14 01:48:39;;;;;;;1.70;1.00;;;;;;;-148.81;100.00;67990.72;2103147;28;20388;-60
2022/01/14 01:49:44;;;;;;;2.05;0.95;;;;;;;-148.81;100.00;67990.72;2103032;28;20075;-59
2022/01/14 01:50:48;;;;;;;1.58;0.88;;;;;;;-148.81;100.00;67990.72;2104097;28;20044;-59
2022/01/14 01:51:54;;;;;;;1.90;1.00;;;;;;;-148.81;100.00;67990.72;2104254;28;20055;-59
2022/01/14 01:52:57;;;;;;;2.03;1.20;;;;;;;-148.81;100.00;67990.72;2104068;28;20048;-59
2022/01/14 01:54:06;;;;;;;2.35;1.02;;;;;;;-148.81;100.00;67990.72;2103924;28;20036;-59
2022/01/14 01:55:15;;;;;;;1.88;1.08;;;;;;;-148.81;100.00;67990.72;2103827;28;20051;-59
2022/01/14 01:56:21;;;;;;;1.45;1.08;;;;;;;-148.81;100.00;67990.72;2103818;28;20059;-59
2022/01/14 01:57:25;;;;;;;1.77;0.90;;;;;;;-148.81;100.00;67990.72;2103721;28;20546;-59
2022/01/14 01:58:30;;;;;;;1.90;0.95;;;;;;;-148.81;100.00;67990.72;2104029;28;20048;-59
2022/01/14 01:59:34;;;;;;;1.02;0.80;;;;;;;-148.81;100.00;67990.72;2104095;28;20403;-58
2022/01/14 02:00:41;;;;;;;1.92;0.90;;;;;;;-148.81;100.00;67990.72;2103996;28;20056;-58
2022/01/14 02:01:46;;;;;;;2.40;1.10;;;;;;;-148.81;100.00;67990.72;2103067;28;20048;-59
2022/01/14 02:02:53;;;;;;;2.53;0.80;;;;;;;-148.81;100.00;67990.72;2103104;28;20059;-58
2022/01/14 02:03:57;;;;;;;4.53;1.10;;;;;;;-148.81;100.00;67990.72;2103607;28;20106;-59
2022/01/14 02:05:03;;;;;;;1.83;1.00;;;;;;;-148.81;100.00;67990.72;2103690;28;20737;-59
2022/01/14 02:06:06;;;;;;;2.88;1.00;;;;;;;-148.81;100.00;67990.72;2103852;28;20052;-59
2022/01/14 02:07:11;;;;;;;1.90;1.02;;;;;;;-148.81;100.00;67990.72;2104118;28;20047;-59
2022/01/14 02:08:15;;;;;;;2.17;0.98;;;;;;;-148.81;100.00;67990.72;2103530;28;20059;-59
2022/01/14 02:09:19;;;;;;;2.08;1.00;;;;;;;-148.81;100.00;67990.72;2103423;28;20042;-58
2022/01/14 02:10:24;;;;;;;1.17;0.70;;;;;;;-148.81;100.00;67990.72;2103472;28;20059;-58
2022/01/14 02:11:32;;;;;;;1.60;0.95;;;;;;;-148.81;100.00;67990.72;2103969;28;20376;-57
2022/01/14 02:12:47;;;;;;;1.98;1.00;;;;;;;-148.81;100.00;67990.72;2103879;28;20060;-59
2022/01/14 02:13:56;;;;;;;1.50;1.00;;;;;;;-148.81;100.00;67990.72;2103450;28;20047;-59
2022/01/14 02:15:10;;;;;;;4.13;0.80;;;;;;;-148.81;100.00;67990.72;2103609;28;20059;-60
2022/01/14 02:16:31;;;;;;;0.90;0.60;;;;;;;-148.81;100.00;67990.72;2103898;28;20055;-60
2022/01/14 02:17:53;;;;;;;2.13;0.82;;;;;;;-148.81;100.00;67990.72;2103634;28;20078;-57
2022/01/14 02:22:13;;;;;;;1.52;0.80;;;;;;;-148.81;100.00;67990.72;2095642;28;20052;-57
2022/01/14 02:23:17;;;;;;;1.67;0.80;;;;;;;-148.81;100.00;67990.72;2095483;28;20056;-57
2022/01/14 02:24:34;;;;;;;2.38;1.20;;;;;;;-148.81;100.00;67990.72;2094902;28;20519;-57
2022/01/14 02:25:38;;;;;;;2.00;0.85;;;;;;;-148.81;100.00;67990.72;2095558;28;20059;-57
2022/01/14 02:26:52;;;;;;;3.53;0.90;;;;;;;-148.81;100.00;67990.72;2095393;28;20064;-58
2022/01/14 02:27:57;;;;;;;1.65;0.95;;;;;;;-148.81;100.00;67990.72;2095509;28;20060;-57
2022/01/14 02:29:02;;;;;;;1.38;0.80;;;;;;;-148.81;100.00;67990.72;2095539;28;20064;-57
2022/01/14 02:30:09;;;;;;;1.38;0.80;;;;;;;-148.81;100.00;67990.72;2095453;28;20499;-57
2022/01/14 02:31:14;;;;;;;1.88;0.98;;;;;;;-148.81;100.00;67990.72;2095213;28;20052;-58
2022/01/14 02:32:19;;;;;;;1.77;0.98;;;;;;;-148.81;100.00;67990.72;2095347;28;20048;-58
2022/01/14 02:34:46;;;;;;;1.10;0.90;;;;;;;-148.81;100.00;67990.72;2095213;28;20512;-57
2022/01/14 02:35:55;;;;;;;3.25;0.95;;;;;;;-148.81;100.00;67990.72;2095641;28;20052;-57
2022/01/14 02:36:59;;;;;;;4.35;0.80;;;;;;;-148.81;100.00;67990.72;2095059;28;20047;-58
2022/01/14 02:38:05;;;;;;;2.72;0.93;;;;;;;-148.81;100.00;67990.72;2095607;28;20511;-57
2022/01/14 02:39:10;;;;;;;1.77;0.90;;;;;;;-148.81;100.00;67990.72;2095294;28;20080;-58
2022/01/14 02:40:17;;;;;;;1.20;0.82;;;;;;;-148.81;100.00;67990.72;2095230;28;20408;-57
2022/01/14 02:41:23;;;;;;;2.22;0.80;;;;;;;-148.81;100.00;67990.72;2094981;28;20045;-57
2022/01/14 02:42:28;;;;;;;1.15;0.70;;;;;;;-148.81;100.00;67990.72;2095060;28;20053;-58
2022/01/14 02:43:34;;;;;;;1.55;0.80;;;;;;;-148.81;100.00;67990.72;2094133;28;20053;-58
2022/01/14 02:44:39;;;;;;;1.38;0.85;;;;;;;-148.81;100.00;67990.72;2094386;28;20045;-58
2022/01/14 02:45:48;;;;;;;0.98;0.70;;;;;;;-148.81;100.00;67990.72;2095319;28;20067;-58
2022/01/14 02:46:56;;;;;;;1.75;0.80;;;;;;;-148.81;100.00;67990.72;2095569;28;20048;-58
2022/01/14 02:48:01;;;;;;;3.22;1.08;;;;;;;-148.81;100.00;67990.72;2095331;28;20044;-58
2022/01/14 02:49:04;;;;;;;1.48;0.85;;;;;;;-148.81;100.00;67990.72;2095364;28;20402;-58
2022/01/14 02:50:15;;;;;;;1.48;0.80;;;;;;;-148.81;100.00;67990.72;2094565;28;20052;-57
2022/01/14 02:51:20;;;;;;;1.10;0.80;;;;;;;-148.81;100.00;67990.72;2094950;28;20048;-58
2022/01/14 02:52:40;;;;;;;2.08;1.08;;;;;;;-148.81;100.00;67990.72;2094931;28;20056;-58
2022/01/14 02:53:55;;;;;;;0.98;0.65;;;;;;;-148.81;100.00;67990.72;2095251;28;20036;-58
2022/01/14 02:55:14;;;;;;;2.13;0.93;;;;;;;-148.81;100.00;67990.72;2094880;28;20041;-58
2022/01/14 02:56:22;;;;;;;1.52;0.90;;;;;;;-148.81;100.00;67990.72;2094826;28;20546;-58
2022/01/14 02:57:25;;;;;;;0.95;0.60;;;;;;;-148.81;100.00;67990.72;2094321;28;20053;-58
2022/01/14 02:58:34;;;;;;;1.60;0.85;;;;;;;-148.81;100.00;67990.72;2094422;28;20064;-58
2022/01/14 02:59:39;;;;;;;1.75;0.85;;;;;;;-148.81;100.00;67990.72;2095487;28;20056;-58
2022/01/14 03:00:44;;;;;;;1.60;0.80;;;;;;;-148.81;100.00;67990.72;2095366;28;20592;-59
2022/01/14 03:01:49;;;;;;;3.58;0.70;;;;;;;-148.81;100.00;67990.72;2095046;28;20059;-59
2022/01/14 03:02:54;;;;;;;1.08;0.68;;;;;;;-148.81;100.00;67990.72;2094963;28;20405;-59
2022/01/14 03:04:00;;;;;;;1.58;0.85;;;;;;;-148.81;100.00;67990.72;2094749;28;20638;-59
2022/01/14 03:05:08;;;;;;;1.08;0.60;;;;;;;-148.81;100.00;67990.72;2095238;28;20079;-58
2022/01/14 03:06:15;;;;;;;1.67;0.80;;;;;;;-148.81;100.00;67990.72;2094684;28;20496;-59
2022/01/14 03:07:22;;;;;;;4.38;0.80;;;;;;;-148.81;100.00;67990.72;2094220;28;20060;-60
2022/01/14 03:08:27;;;;;;;1.52;0.90;;;;;;;-148.81;100.00;67990.72;2094772;28;20060;-60
2022/01/14 03:09:31;;;;;;;2.10;0.70;;;;;;;-148.81;100.00;67990.72;2095341;28;20067;-60
2022/01/14 03:10:37;;;;;;;1.38;0.85;;;;;;;-148.81;100.00;67990.72;2094063;28;20048;-61
2022/01/14 03:11:43;;;;;;;1.77;0.75;;;;;;;-148.81;100.00;67990.72;2093624;28;20060;-60
2022/01/14 03:12:49;;;;;;;1.65;1.00;;;;;;;-148.81;100.00;67990.72;2094810;28;20045;-60
2022/01/14 03:13:53;;;;;;;1.77;0.80;;;;;;;-148.81;100.00;67990.72;2094209;28;20045;-61
2022/01/14 03:14:58;;;;;;;1.83;0.70;;;;;;;-148.81;100.00;67990.72;2094393;28;20056;-60
2022/01/14 03:16:05;;;;;;;1.40;0.80;;;;;;;-148.81;100.00;67990.72;2095155;28;20064;-60
2022/01/14 03:17:09;;;;;;;2.33;0.80;;;;;;;-148.81;100.00;67990.72;2094966;28;20045;-61
2022/01/14 03:18:17;;;;;;;1.77;0.80;;;;;;;-148.81;100.00;67990.72;2094862;28;20049;-62
2022/01/14 03:19:24;;;;;;;1.08;0.70;;;;;;;-148.81;100.00;67990.72;2094664;28;20515;-61
2022/01/14 03:21:52;;;;;;;;;;;;;;;-148.81;100.00;67990.72;2100867;28;20048;-61
2022/01/14 03:23:05;;;;;;;1.23;0.77;;;;;;;-148.81;100.00;67990.72;2101972;28;19968;-60
2022/01/14 03:24:19;;;;;;;1.42;0.75;;;;;;;-148.81;100.00;67990.72;2094806;28;20048;-59
2022/01/14 03:25:47;;;;;;;1.02;0.70;;;;;;;-148.81;100.00;67990.72;2095415;28;20072;-59
2022/01/14 03:26:54;;;;;;;2.80;0.85;;;;;;;-148.81;100.00;67990.72;2095358;28;20047;-59
2022/01/14 03:27:57;;;;;;;1.02;0.60;;;;;;;-148.81;100.00;67990.72;2094852;28;20055;-59
2022/01/14 03:29:02;;;;;;;0.93;0.60;;;;;;;-148.81;100.00;67990.72;2094619;28;20053;-59
2022/01/14 03:30:07;;;;;;;1.88;0.80;;;;;;;-148.81;100.00;67990.72;2095235;28;20055;-60
2022/01/14 03:31:12;;;;;;;0.82;0.60;;;;;;;-148.81;100.00;67990.72;2094663;28;20807;-60
2022/01/14 03:32:18;;;;;;;5.55;0.63;;;;;;;-148.81;100.00;67990.72;2094900;28;20052;-59
2022/01/14 03:33:25;;;;;;;1.08;0.70;;;;;;;-148.81;100.00;67990.72;2095082;28;20083;-59
2022/01/14 03:34:29;;;;;;;1.60;0.90;;;;;;;-148.81;100.00;67990.72;2095471;28;20049;-58
2022/01/14 03:35:34;;;;;;;1.33;0.77;;;;;;;-148.81;100.00;67990.72;2095475;28;20079;-59
2022/01/14 03:36:40;;;;;;;2.30;0.70;;;;;;;-148.81;100.00;67990.72;2094656;28;20056;-59
2022/01/14 03:37:44;;;;;;;0.68;0.57;;;;;;;-148.81;100.00;67990.72;2094586;28;20068;-59
2022/01/14 03:38:55;;;;;;;0.70;0.60;;;;;;;-148.81;100.00;67990.72;2094434;28;20052;-59
2022/01/14 03:39:59;;;;;;;1.23;0.70;;;;;;;-148.81;100.00;67990.72;2094391;28;20532;-59
2022/01/14 03:41:04;;;;;;;2.08;0.90;;;;;;;-148.81;100.00;67990.72;2095232;28;20063;-59
2022/01/14 03:42:09;;;;;;;1.05;0.70;;;;;;;-148.81;100.00;67990.72;2095457;28;20055;-60
2022/01/14 03:43:15;;;;;;;1.42;0.82;;;;;;;-148.81;100.00;67990.72;2095419;28;20051;-60
2022/01/14 03:44:22;;;;;;;2.17;0.73;;;;;;;-148.81;100.00;67990.72;2095238;28;20523;-60
2022/01/14 03:45:28;;;;;;;1.75;0.80;;;;;;;-148.81;100.00;67990.72;2095525;28;20048;-58
2022/01/14 03:46:34;;;;;;;4.78;0.80;;;;;;;-148.81;100.00;67990.72;2094848;28;20056;-59
2022/01/14 03:47:38;;;;;;;1.75;0.60;;;;;;;-148.81;100.00;67990.72;2094935;28;20064;-59
2022/01/14 03:48:42;;;;;;;1.23;0.73;;;;;;;-148.81;100.00;67990.72;2095157;28;20044;-59
2022/01/14 03:49:46;;;;;;;1.10;0.60;;;;;;;-148.81;100.00;67990.72;2095467;28;20053;-58
2022/01/14 03:50:52;;;;;;;1.55;0.70;;;;;;;-148.81;100.00;67990.72;2095311;28;20048;-58
2022/01/14 03:51:56;;;;;;;1.33;0.80;;;;;;;-148.81;100.00;67990.72;2094931;28;20057;-58
2022/01/14 03:53:02;;;;;;;4.22;0.75;;;;;;;-148.81;100.00;67990.72;2094940;28;20048;-58
2022/01/14 03:54:09;;;;;;;2.95;0.90;;;;;;;-148.81;100.00;67990.72;2094614;28;20055;-59
2022/01/14 03:55:14;;;;;;;0.93;0.68;;;;;;;-148.81;100.00;67990.72;2095209;28;20048;-59
2022/01/14 03:56:25;;;;;;;1.25;0.70;;;;;;;-148.81;100.00;67990.72;2095175;28;20056;-59
2022/01/14 03:57:29;;;;;;;1.80;0.93;;;;;;;-148.81;100.00;67990.72;2095247;28;20057;-59
2022/01/14 03:58:36;;;;;;;1.83;0.70;;;;;;;-148.81;100.00;67990.72;2095436;28;20504;-59
2022/01/14 03:59:40;;;;;;;1.67;0.80;;;;;;;-148.81;100.00;67990.72;2095540;28;20057;-59
2022/01/14 04:00:45;;;;;;;1.83;0.88;;;;;;;-148.81;100.00;67990.72;2094954;28;20491;-58
2022/01/14 04:01:50;;;;;;;1.80;0.88;;;;;;;-148.81;100.00;67990.72;2094204;28;20518;-58
2022/01/14 04:02:56;;;;;;;1.45;0.70;;;;;;;-148.81;100.00;67990.72;2093960;28;20589;-58
2022/01/14 04:04:03;;;;;;;1.27;0.80;;;;;;;-148.81;100.00;67990.72;2094865;28;20060;-58
2022/01/14 04:05:10;;;;;;;1.48;0.60;;;;;;;-148.81;100.00;67990.72;2095295;28;20052;-58
2022/01/14 04:06:17;;;;;;;1.80;0.60;;;;;;;-148.81;100.00;67990.72;2094788;28;20052;-58
2022/01/14 04:07:22;;;;;;;3.00;0.70;;;;;;;-148.81;100.00;67990.72;2095269;28;20047;-59
2022/01/14 04:08:28;;;;;;;1.13;0.63;;;;;;;-148.81;100.00;67990.72;2095446;28;20045;-58
2022/01/14 04:09:38;;;;;;;3.70;0.70;;;;;;;-148.81;100.00;67990.72;2095248;28;20053;-58
2022/01/14 04:10:45;;;;;;;0.82;0.70;;;;;;;-148.81;100.00;67990.72;2094360;28;20052;-58
2022/01/14 04:11:49;;;;;;;2.65;0.70;;;;;;;-148.81;100.00;67990.72;2094508;28;20056;-58
2022/01/14 04:12:58;;;;;;;1.27;0.70;;;;;;;-148.81;100.00;67990.72;2094825;28;20048;-58
2022/01/14 04:15:36;;;;;;;8.43;0.75;;;;;;;-148.81;100.00;67990.72;2095189;28;20041;-58
2022/01/14 04:15:42;;;;;;;1.35;0.70;;;;;;;-148.81;100.00;67990.72;2094697;28;20059;-58
2022/01/14 04:16:45;;;;;;;1.15;0.70;;;;;;;-148.81;100.00;67990.72;2094734;28;20053;-58
2022/01/14 04:17:50;;;;;;;0.93;0.65;;;;;;;-148.81;100.00;67990.72;2095416;28;20056;-58
2022/01/14 04:18:56;;;;;;;1.50;0.70;;;;;;;-148.81;100.00;67990.72;2095236;28;20044;-58
2022/01/14 04:20:00;;;;;;;1.23;0.65;;;;;;;-148.81;100.00;67990.72;2095019;28;20067;-58
2022/01/14 04:21:05;;;;;;;1.40;0.80;;;;;;;-148.81;100.00;67990.72;2096629;28;20047;-58
2022/01/14 04:22:09;;;;;;;1.50;0.80;;;;;;;-148.81;100.00;67990.72;2103219;28;20758;-58
2022/01/14 04:23:18;;;;;;;1.60;0.70;;;;;;;-148.81;100.00;67990.72;2103252;28;20054;-58
2022/01/14 04:24:21;;;;;;;1.38;0.90;;;;;;;-148.81;100.00;67990.72;2095051;28;20059;-59
2022/01/14 04:25:28;;;;;;;1.33;0.80;;;;;;;-148.81;100.00;67990.72;2094830;28;20052;-58
2022/01/14 04:26:33;;;;;;;3.22;1.05;;;;;;;-148.81;100.00;67990.72;2094739;28;20064;-58
2022/01/14 04:27:37;;;;;;;0.88;0.68;;;;;;;-148.81;100.00;67990.72;2093913;28;20055;-58
2022/01/14 04:28:41;;;;;;;1.65;0.70;;;;;;;-148.81;100.00;67990.72;2094066;28;20069;-59
2022/01/14 04:29:45;;;;;;;1.25;0.77;;;;;;;-148.81;100.00;67990.72;2094726;28;20056;-58
2022/01/14 04:30:54;;;;;;;6.28;0.70;;;;;;;-148.81;100.00;67990.72;2094285;28;20052;-58
2022/01/14 04:32:01;;;;;;;4.57;0.80;;;;;;;-148.81;100.00;67990.72;2094170;28;20052;-58
2022/01/14 04:33:09;;;;;;;1.50;0.80;;;;;;;-148.81;100.00;67990.72;2096567;28;20036;-58
2022/01/14 04:34:17;;;;;;;3.58;0.70;;;;;;;-148.81;100.00;67990.72;2096496;28;20487;-59
2022/01/14 04:35:22;;;;;;;1.52;0.80;;;;;;;-148.81;100.00;67990.72;2095776;28;20052;-59
2022/01/14 04:36:30;;;;;;;2.30;0.80;;;;;;;-148.81;100.00;67990.72;2095750;28;20056;-59
2022/01/14 04:37:33;;;;;;;2.58;0.80;;;;;;;-148.81;100.00;67990.72;2095940;28;20040;-59
2022/01/14 04:38:38;;;;;;;1.17;0.80;;;;;;;-148.81;100.00;67990.72;2095883;28;20052;-58
2022/01/14 04:39:41;;;;;;;1.55;0.93;;;;;;;-148.81;100.00;67990.72;2095484;28;20056;-58
2022/01/14 04:40:49;;;;;;;2.15;0.90;;;;;;;-148.81;100.00;67990.72;2095571;28;20056;-58
2022/01/14 04:41:53;;;;;;;1.60;0.70;;;;;;;-148.81;100.00;67990.72;2096326;28;20044;-58
2022/01/14 04:43:00;;;;;;;4.43;0.73;;;;;;;-148.81;100.00;67990.72;2095999;28;20052;-58
2022/01/14 04:44:06;;;;;;;1.08;0.50;;;;;;;-148.81;100.00;67990.72;2095964;28;20053;-58
2022/01/14 04:45:12;;;;;;;1.75;0.70;;;;;;;-148.81;100.00;67990.72;2095998;28;20052;-58
2022/01/14 04:46:59;;;;;;;1.67;0.80;;;;;;;-148.81;100.00;67990.72;2095786;28;20055;-58
2022/01/14 04:47:59;;;;;;;7.15;0.88;;;;;;;-148.81;100.00;67990.72;2095539;28;20060;-58
2022/01/14 04:49:03;;;;;;;1.08;0.68;;;;;;;-148.81;100.00;67990.72;2095938;28;20057;-58
2022/01/14 04:50:12;;;;;;;2.75;0.90;;;;;;;-148.81;100.00;67990.72;2096480;28;20368;-58
2022/01/14 04:51:16;;;;;;;1.77;0.73;;;;;;;-148.81;100.00;67990.72;2095611;28;20052;-58
2022/01/14 04:52:20;;;;;;;4.35;0.88;;;;;;;-148.81;100.00;67990.72;2095085;28;20056;-59
2022/01/14 04:53:23;;;;;;;2.35;1.08;;;;;;;-148.81;100.00;67990.72;2096162;28;20053;-59
2022/01/14 04:54:29;;;;;;;1.35;0.90;;;;;;;-148.81;100.00;67990.72;2095954;28;20052;-58
2022/01/14 04:55:33;;;;;;;2.60;0.75;;;;;;;-148.81;100.00;67990.72;2096063;28;20056;-58
2022/01/14 04:56:39;;;;;;;4.90;0.88;;;;;;;-148.81;100.00;67990.72;2096298;28;20051;-59
2022/01/14 04:57:46;;;;;;;2.13;0.90;;;;;;;-148.81;100.00;67990.72;2096234;28;20049;-58
2022/01/14 04:58:49;;;;;;;1.10;0.60;;;;;;;-148.81;100.00;67990.72;2096105;28;20048;-58
2022/01/14 04:59:54;;;;;;;1.90;0.70;;;;;;;-148.81;100.00;67990.72;2095871;28;20055;-58
2022/01/14 05:00:57;;;;;;;1.77;0.80;;;;;;;-148.81;100.00;67990.72;2095933;28;20036;-58
2022/01/14 05:02:03;;;;;;;3.00;0.95;;;;;;;-148.81;100.00;67990.72;2096313;28;20048;-57
2022/01/14 05:03:07;;;;;;;0.63;0.60;;;;;;;-148.81;100.00;67990.72;2096148;28;20044;-58
2022/01/14 05:04:14;;;;;;;1.65;0.70;;;;;;;-148.81;100.00;67990.72;2096175;28;20052;-58
2022/01/14 05:05:22;;;;;;;2.00;0.73;;;;;;;-148.81;100.00;67990.72;2095386;28;20053;-58
2022/01/14 05:06:26;;;;;;;1.20;0.70;;;;;;;-148.81;100.00;67990.72;2095442;28;20056;-58
2022/01/14 05:07:30;;;;;;;2.25;0.90;;;;;;;-148.81;100.00;67990.72;2094564;28;20052;-58
2022/01/14 05:08:37;;;;;;;1.90;0.80;;;;;;;-148.81;100.00;67990.72;2096226;28;20064;-58
2022/01/14 05:09:46;;;;;;;1.27;0.70;;;;;;;-148.81;100.00;67990.72;2096009;28;20060;-59
2022/01/14 05:11:01;;;;;;;1.73;0.70;;;;;;;-148.81;100.00;67990.72;2096127;28;20380;-59
2022/01/14 05:12:11;;;;;;;1.30;0.73;;;;;;;-148.81;100.00;67990.72;2095546;28;20456;-59
2022/01/14 05:13:14;;;;;;;2.20;0.80;;;;;;;-148.81;100.00;67990.72;2096791;28;20068;-59
2022/01/14 05:14:18;;;;;;;2.13;0.90;;;;;;;-148.81;100.00;67990.72;2093231;28;20044;-59
2022/01/14 05:15:25;;;;;;;1.65;0.77;;;;;;;-148.81;100.00;67990.72;2103417;28;20060;-58
2022/01/14 05:16:28;;;;;;;1.00;0.70;;;;;;;-148.81;100.00;67990.72;2106212;28;20067;-58
2022/01/14 05:17:34;;;;;;;3.00;0.88;;;;;;;-148.81;100.00;67990.72;2103222;28;20044;-59
2022/01/14 05:18:43;;;;;;;2.72;1.00;;;;;;;-148.81;100.00;67990.72;2096276;28;20068;-57
2022/01/14 05:19:49;;;;;;;4.13;0.90;;;;;;;-148.81;100.00;67990.72;2096118;28;20464;-57